sensor_id;sensor_type;location;lat;lon;timestamp;temperature;humidity
13976;DHT22;7062;49.792;9.946;2023-07-13T00:02:24;23.60;87.90
13976;DHT22;7062;49.792;9.946;2023-07-13T00:04:50;23.60;88.00
13976;DHT22;7062;49.792;9.946;2023-07-13T00:07:16;23.70;87.70
13976;DHT22;7062;49.792;9.946;2023-07-13T00:09:48;23.70;87.50
13976;DHT22;7062;49.792;9.946;2023-07-13T00:12:40;23.60;88.10
13976;DHT22;7062;49.792;9.946;2023-07-13T00:15:19;23.60;88.20
13976;DHT22;7062;49.792;9.946;2023-07-13T00:17:55;23.50;88.30
13976;DHT22;7062;49.792;9.946;2023-07-13T00:20:22;23.40;88.30
13976;DHT22;7062;49.792;9.946;2023-07-13T00:22:51;23.60;88.40
13976;DHT22;7062;49.792;9.946;2023-07-13T00:25:18;23.40;88.50
13976;DHT22;7062;49.792;9.946;2023-07-13T00:27:43;23.50;88.30
13976;DHT22;7062;49.792;9.946;2023-07-13T00:30:10;23.50;88.30
13976;DHT22;7062;49.792;9.946;2023-07-13T00:32:37;23.40;88.60
13976;DHT22;7062;49.792;9.946;2023-07-13T00:35:03;23.40;88.50
13976;DHT22;7062;49.792;9.946;2023-07-13T00:37:30;23.20;88.90
13976;DHT22;7062;49.792;9.946;2023-07-13T00:39:56;23.20;88.80
13976;DHT22;7062;49.792;9.946;2023-07-13T00:42:22;23.20;88.70
13976;DHT22;7062;49.792;9.946;2023-07-13T00:47:40;23.20;89.10
13976;DHT22;7062;49.792;9.946;2023-07-13T00:50:08;23.30;89.30
13976;DHT22;7062;49.792;9.946;2023-07-13T00:52:36;23.20;89.40
13976;DHT22;7062;49.792;9.946;2023-07-13T00:55:03;23.20;89.90
13976;DHT22;7062;49.792;9.946;2023-07-13T00:57:29;23.20;89.40
13976;DHT22;7062;49.792;9.946;2023-07-13T00:59:58;23.10;89.30
13976;DHT22;7062;49.792;9.946;2023-07-13T01:02:25;23.10;89.50
13976;DHT22;7062;49.792;9.946;2023-07-13T01:04:51;23.20;89.30
13976;DHT22;7062;49.792;9.946;2023-07-13T01:07:18;23.10;89.10
13976;DHT22;7062;49.792;9.946;2023-07-13T01:09:45;23.20;89.40
13976;DHT22;7062;49.792;9.946;2023-07-13T01:12:11;23.20;89.30
13976;DHT22;7062;49.792;9.946;2023-07-13T01:14:37;23.10;89.30
13976;DHT22;7062;49.792;9.946;2023-07-13T01:17:03;23.20;89.30
13976;DHT22;7062;49.792;9.946;2023-07-13T01:22:09;23.10;89.10
13976;DHT22;7062;49.792;9.946;2023-07-13T01:24:37;23.10;89.30
13976;DHT22;7062;49.792;9.946;2023-07-13T01:27:04;23.10;89.20
13976;DHT22;7062;49.792;9.946;2023-07-13T01:29:33;23.10;89.40
13976;DHT22;7062;49.792;9.946;2023-07-13T01:31:59;22.90;89.10
13976;DHT22;7062;49.792;9.946;2023-07-13T01:34:26;22.90;89.50
13976;DHT22;7062;49.792;9.946;2023-07-13T01:36:53;22.80;89.40
13976;DHT22;7062;49.792;9.946;2023-07-13T01:39:22;22.70;89.50
13976;DHT22;7062;49.792;9.946;2023-07-13T01:41:49;22.40;90.10
13976;DHT22;7062;49.792;9.946;2023-07-13T01:44:14;22.40;90.30
13976;DHT22;7062;49.792;9.946;2023-07-13T01:46:40;22.40;90.30
13976;DHT22;7062;49.792;9.946;2023-07-13T01:49:06;22.40;90.20
13976;DHT22;7062;49.792;9.946;2023-07-13T01:51:32;22.40;90.30
13976;DHT22;7062;49.792;9.946;2023-07-13T01:53:57;22.40;90.20
13976;DHT22;7062;49.792;9.946;2023-07-13T01:56:23;22.30;90.20
13976;DHT22;7062;49.792;9.946;2023-07-13T01:58:49;22.20;90.40
13976;DHT22;7062;49.792;9.946;2023-07-13T02:01:14;22.30;90.40
13976;DHT22;7062;49.792;9.946;2023-07-13T02:03:40;22.10;90.40
13976;DHT22;7062;49.792;9.946;2023-07-13T02:06:05;22.10;90.50
13976;DHT22;7062;49.792;9.946;2023-07-13T02:08:32;22.10;90.50
13976;DHT22;7062;49.792;9.946;2023-07-13T02:10:58;22.20;90.40
13976;DHT22;7062;49.792;9.946;2023-07-13T02:13:23;22.10;90.40
13976;DHT22;7062;49.792;9.946;2023-07-13T02:15:52;22.20;90.40
13976;DHT22;7062;49.792;9.946;2023-07-13T02:18:18;22.30;90.40
13976;DHT22;7062;49.792;9.946;2023-07-13T02:20:44;22.40;90.20
13976;DHT22;7062;49.792;9.946;2023-07-13T02:23:10;22.20;90.30
13976;DHT22;7062;49.792;9.946;2023-07-13T02:25:36;22.30;90.20
13976;DHT22;7062;49.792;9.946;2023-07-13T02:28:02;22.30;90.00
13976;DHT22;7062;49.792;9.946;2023-07-13T02:30:29;22.30;89.90
13976;DHT22;7062;49.792;9.946;2023-07-13T02:32:56;22.30;89.90
13976;DHT22;7062;49.792;9.946;2023-07-13T02:35:22;22.20;90.00
13976;DHT22;7062;49.792;9.946;2023-07-13T02:37:48;22.20;90.00
13976;DHT22;7062;49.792;9.946;2023-07-13T02:40:14;22.20;90.00
13976;DHT22;7062;49.792;9.946;2023-07-13T02:42:40;22.00;90.00
13976;DHT22;7062;49.792;9.946;2023-07-13T02:45:07;21.90;90.10
13976;DHT22;7062;49.792;9.946;2023-07-13T02:47:33;21.90;90.20
13976;DHT22;7062;49.792;9.946;2023-07-13T02:49:59;21.90;90.30
13976;DHT22;7062;49.792;9.946;2023-07-13T02:52:25;21.90;90.40
13976;DHT22;7062;49.792;9.946;2023-07-13T02:54:51;21.90;90.20
13976;DHT22;7062;49.792;9.946;2023-07-13T02:57:16;21.90;90.20
13976;DHT22;7062;49.792;9.946;2023-07-13T02:59:42;21.80;90.40
13976;DHT22;7062;49.792;9.946;2023-07-13T03:02:07;21.70;90.40
13976;DHT22;7062;49.792;9.946;2023-07-13T03:04:38;21.70;90.50
13976;DHT22;7062;49.792;9.946;2023-07-13T03:07:05;21.70;90.60
13976;DHT22;7062;49.792;9.946;2023-07-13T03:09:32;21.70;90.70
13976;DHT22;7062;49.792;9.946;2023-07-13T03:11:58;21.60;90.70
13976;DHT22;7062;49.792;9.946;2023-07-13T03:14:24;21.50;90.90
13976;DHT22;7062;49.792;9.946;2023-07-13T03:16:50;21.50;90.90
13976;DHT22;7062;49.792;9.946;2023-07-13T03:19:15;21.40;90.90
13976;DHT22;7062;49.792;9.946;2023-07-13T03:21:41;21.40;91.10
13976;DHT22;7062;49.792;9.946;2023-07-13T03:24:07;21.40;91.10
13976;DHT22;7062;49.792;9.946;2023-07-13T03:26:33;21.40;91.10
13976;DHT22;7062;49.792;9.946;2023-07-13T03:28:58;21.40;91.10
13976;DHT22;7062;49.792;9.946;2023-07-13T03:31:29;21.40;91.10
13976;DHT22;7062;49.792;9.946;2023-07-13T03:33:55;21.50;91.20
13976;DHT22;7062;49.792;9.946;2023-07-13T03:36:26;21.40;91.00
13976;DHT22;7062;49.792;9.946;2023-07-13T03:38:55;21.40;91.10
13976;DHT22;7062;49.792;9.946;2023-07-13T03:41:22;21.40;91.20
13976;DHT22;7062;49.792;9.946;2023-07-13T03:43:48;21.40;91.50
13976;DHT22;7062;49.792;9.946;2023-07-13T03:46:15;21.40;91.20
13976;DHT22;7062;49.792;9.946;2023-07-13T03:48:43;21.40;91.40
13976;DHT22;7062;49.792;9.946;2023-07-13T03:51:10;21.20;91.60
13976;DHT22;7062;49.792;9.946;2023-07-13T03:53:41;21.20;92.00
13976;DHT22;7062;49.792;9.946;2023-07-13T03:56:07;21.20;91.80
13976;DHT22;7062;49.792;9.946;2023-07-13T03:58:35;21.20;91.80
13976;DHT22;7062;49.792;9.946;2023-07-13T04:01:03;21.20;91.80
13976;DHT22;7062;49.792;9.946;2023-07-13T04:03:29;21.20;91.80
13976;DHT22;7062;49.792;9.946;2023-07-13T04:05:58;21.20;91.80
13976;DHT22;7062;49.792;9.946;2023-07-13T04:08:29;21.20;91.70
13976;DHT22;7062;49.792;9.946;2023-07-13T04:10:56;21.20;91.70
13976;DHT22;7062;49.792;9.946;2023-07-13T04:13:22;21.20;91.70
13976;DHT22;7062;49.792;9.946;2023-07-13T04:15:48;21.20;91.70
13976;DHT22;7062;49.792;9.946;2023-07-13T04:18:14;21.10;91.80
13976;DHT22;7062;49.792;9.946;2023-07-13T04:20:39;21.10;92.00
13976;DHT22;7062;49.792;9.946;2023-07-13T04:23:05;21.00;92.10
13976;DHT22;7062;49.792;9.946;2023-07-13T04:25:31;21.00;92.20
13976;DHT22;7062;49.792;9.946;2023-07-13T04:27:56;21.10;92.10
13976;DHT22;7062;49.792;9.946;2023-07-13T04:30:22;21.10;92.00
13976;DHT22;7062;49.792;9.946;2023-07-13T04:32:49;21.10;92.00
13976;DHT22;7062;49.792;9.946;2023-07-13T04:35:15;21.20;91.90
13976;DHT22;7062;49.792;9.946;2023-07-13T04:37:41;21.20;91.80
13976;DHT22;7062;49.792;9.946;2023-07-13T04:40:07;21.30;91.80
13976;DHT22;7062;49.792;9.946;2023-07-13T04:42:37;21.40;91.70
13976;DHT22;7062;49.792;9.946;2023-07-13T04:45:02;21.30;91.60
13976;DHT22;7062;49.792;9.946;2023-07-13T04:47:30;21.30;91.90
13976;DHT22;7062;49.792;9.946;2023-07-13T04:49:56;21.40;91.80
13976;DHT22;7062;49.792;9.946;2023-07-13T04:52:23;21.40;91.50
13976;DHT22;7062;49.792;9.946;2023-07-13T04:54:48;21.40;91.60
13976;DHT22;7062;49.792;9.946;2023-07-13T04:57:14;21.40;91.50
13976;DHT22;7062;49.792;9.946;2023-07-13T04:59:40;21.40;91.40
13976;DHT22;7062;49.792;9.946;2023-07-13T05:02:06;21.50;91.20
13976;DHT22;7062;49.792;9.946;2023-07-13T05:04:31;21.40;91.50
13976;DHT22;7062;49.792;9.946;2023-07-13T05:06:57;21.40;91.30
13976;DHT22;7062;49.792;9.946;2023-07-13T05:09:23;21.50;91.30
13976;DHT22;7062;49.792;9.946;2023-07-13T05:11:48;21.40;91.30
13976;DHT22;7062;49.792;9.946;2023-07-13T05:14:14;21.40;91.60
13976;DHT22;7062;49.792;9.946;2023-07-13T05:16:42;21.40;91.60
13976;DHT22;7062;49.792;9.946;2023-07-13T05:19:08;21.30;91.70
13976;DHT22;7062;49.792;9.946;2023-07-13T05:21:34;21.10;92.00
13976;DHT22;7062;49.792;9.946;2023-07-13T05:24:00;21.00;92.00
13976;DHT22;7062;49.792;9.946;2023-07-13T05:26:25;21.00;92.00
13976;DHT22;7062;49.792;9.946;2023-07-13T05:28:51;21.00;92.20
13976;DHT22;7062;49.792;9.946;2023-07-13T05:31:17;21.00;92.10
13976;DHT22;7062;49.792;9.946;2023-07-13T05:33:42;21.00;92.20
13976;DHT22;7062;49.792;9.946;2023-07-13T05:36:08;21.00;92.30
13976;DHT22;7062;49.792;9.946;2023-07-13T05:38:34;20.90;92.40
13976;DHT22;7062;49.792;9.946;2023-07-13T05:40:59;20.90;92.30
13976;DHT22;7062;49.792;9.946;2023-07-13T05:43:25;20.90;92.40
13976;DHT22;7062;49.792;9.946;2023-07-13T05:45:54;21.00;92.30
13976;DHT22;7062;49.792;9.946;2023-07-13T05:48:20;21.00;92.20
13976;DHT22;7062;49.792;9.946;2023-07-13T05:50:45;21.00;92.20
13976;DHT22;7062;49.792;9.946;2023-07-13T05:53:12;21.00;92.00
13976;DHT22;7062;49.792;9.946;2023-07-13T05:55:42;21.00;92.10
13976;DHT22;7062;49.792;9.946;2023-07-13T05:58:08;21.10;92.20
13976;DHT22;7062;49.792;9.946;2023-07-13T06:00:33;21.20;91.90
13976;DHT22;7062;49.792;9.946;2023-07-13T06:02:59;21.30;91.50
13976;DHT22;7062;49.792;9.946;2023-07-13T06:05:25;21.20;91.70
13976;DHT22;7062;49.792;9.946;2023-07-13T06:07:50;21.20;91.70
13976;DHT22;7062;49.792;9.946;2023-07-13T06:10:16;21.30;91.70
13976;DHT22;7062;49.792;9.946;2023-07-13T06:12:41;21.40;91.60
13976;DHT22;7062;49.792;9.946;2023-07-13T06:15:08;21.40;91.10
13976;DHT22;7062;49.792;9.946;2023-07-13T06:17:33;21.50;91.20
13976;DHT22;7062;49.792;9.946;2023-07-13T06:19:59;21.60;91.20
13976;DHT22;7062;49.792;9.946;2023-07-13T06:22:24;21.70;91.10
13976;DHT22;7062;49.792;9.946;2023-07-13T06:24:50;21.60;90.80
13976;DHT22;7062;49.792;9.946;2023-07-13T06:27:16;21.60;90.80
13976;DHT22;7062;49.792;9.946;2023-07-13T06:29:41;21.60;90.80
13976;DHT22;7062;49.792;9.946;2023-07-13T06:32:10;21.70;90.50
13976;DHT22;7062;49.792;9.946;2023-07-13T06:34:36;21.80;90.50
13976;DHT22;7062;49.792;9.946;2023-07-13T06:37:02;21.80;90.50
13976;DHT22;7062;49.792;9.946;2023-07-13T06:39:27;21.80;90.30
13976;DHT22;7062;49.792;9.946;2023-07-13T06:41:53;21.70;90.40
13976;DHT22;7062;49.792;9.946;2023-07-13T06:44:18;21.70;90.20
13976;DHT22;7062;49.792;9.946;2023-07-13T06:46:44;21.80;90.50
13976;DHT22;7062;49.792;9.946;2023-07-13T06:49:10;21.90;90.50
13976;DHT22;7062;49.792;9.946;2023-07-13T06:51:35;21.90;90.00
13976;DHT22;7062;49.792;9.946;2023-07-13T06:54:01;21.90;90.00
13976;DHT22;7062;49.792;9.946;2023-07-13T06:56:26;21.80;90.00
13976;DHT22;7062;49.792;9.946;2023-07-13T06:58:52;21.70;90.00
13976;DHT22;7062;49.792;9.946;2023-07-13T07:01:18;21.80;90.00
13976;DHT22;7062;49.792;9.946;2023-07-13T07:03:43;21.90;89.80
13976;DHT22;7062;49.792;9.946;2023-07-13T07:06:21;21.90;90.00
13976;DHT22;7062;49.792;9.946;2023-07-13T07:08:51;21.80;90.10
13976;DHT22;7062;49.792;9.946;2023-07-13T07:11:19;21.80;89.00
13976;DHT22;7062;49.792;9.946;2023-07-13T07:13:45;21.80;87.40
13976;DHT22;7062;49.792;9.946;2023-07-13T07:16:11;21.70;87.40
13976;DHT22;7062;49.792;9.946;2023-07-13T07:18:37;21.80;86.00
13976;DHT22;7062;49.792;9.946;2023-07-13T07:21:03;21.90;86.40
13976;DHT22;7062;49.792;9.946;2023-07-13T07:23:28;22.00;86.30
13976;DHT22;7062;49.792;9.946;2023-07-13T07:25:54;22.00;86.30
13976;DHT22;7062;49.792;9.946;2023-07-13T07:28:20;21.90;87.00
13976;DHT22;7062;49.792;9.946;2023-07-13T07:30:46;21.90;87.10
13976;DHT22;7062;49.792;9.946;2023-07-13T07:33:13;21.80;87.50
13976;DHT22;7062;49.792;9.946;2023-07-13T07:35:38;21.90;87.00
13976;DHT22;7062;49.792;9.946;2023-07-13T07:38:04;21.90;86.50
13976;DHT22;7062;49.792;9.946;2023-07-13T07:40:30;21.90;86.60
13976;DHT22;7062;49.792;9.946;2023-07-13T07:42:56;22.00;86.70
13976;DHT22;7062;49.792;9.946;2023-07-13T07:45:22;21.70;86.30
13976;DHT22;7062;49.792;9.946;2023-07-13T07:47:47;22.30;85.90
13976;DHT22;7062;49.792;9.946;2023-07-13T07:50:13;22.30;85.50
13976;DHT22;7062;49.792;9.946;2023-07-13T07:52:39;22.40;85.00
13976;DHT22;7062;49.792;9.946;2023-07-13T07:55:06;22.40;84.80
13976;DHT22;7062;49.792;9.946;2023-07-13T07:57:32;22.50;85.90
13976;DHT22;7062;49.792;9.946;2023-07-13T07:59:58;22.60;85.70
13976;DHT22;7062;49.792;9.946;2023-07-13T08:02:25;22.70;85.40
13976;DHT22;7062;49.792;9.946;2023-07-13T08:04:50;22.80;85.50
13976;DHT22;7062;49.792;9.946;2023-07-13T08:07:16;22.90;84.10
13976;DHT22;7062;49.792;9.946;2023-07-13T08:09:42;22.90;84.30
13976;DHT22;7062;49.792;9.946;2023-07-13T08:12:07;22.90;83.90
13976;DHT22;7062;49.792;9.946;2023-07-13T08:14:33;22.80;83.40
13976;DHT22;7062;49.792;9.946;2023-07-13T08:16:59;22.80;81.80
13976;DHT22;7062;49.792;9.946;2023-07-13T08:19:24;22.70;81.60
13976;DHT22;7062;49.792;9.946;2023-07-13T08:21:50;22.60;81.30
13976;DHT22;7062;49.792;9.946;2023-07-13T08:24:16;22.60;81.90
13976;DHT22;7062;49.792;9.946;2023-07-13T08:26:44;22.80;81.90
13976;DHT22;7062;49.792;9.946;2023-07-13T08:29:10;22.90;81.40
13976;DHT22;7062;49.792;9.946;2023-07-13T08:31:36;23.00;81.00
13976;DHT22;7062;49.792;9.946;2023-07-13T08:34:01;23.10;80.50
13976;DHT22;7062;49.792;9.946;2023-07-13T08:36:28;23.10;80.60
13976;DHT22;7062;49.792;9.946;2023-07-13T08:38:54;23.10;80.60
13976;DHT22;7062;49.792;9.946;2023-07-13T08:41:20;23.10;80.70
13976;DHT22;7062;49.792;9.946;2023-07-13T08:43:49;23.20;80.50
13976;DHT22;7062;49.792;9.946;2023-07-13T08:46:23;23.10;80.30
13976;DHT22;7062;49.792;9.946;2023-07-13T08:49:03;23.10;80.50
13976;DHT22;7062;49.792;9.946;2023-07-13T08:51:55;23.20;80.10
13976;DHT22;7062;49.792;9.946;2023-07-13T08:54:30;23.30;79.90
13976;DHT22;7062;49.792;9.946;2023-07-13T08:57:00;23.40;79.80
13976;DHT22;7062;49.792;9.946;2023-07-13T08:59:28;23.70;79.70
13976;DHT22;7062;49.792;9.946;2023-07-13T09:02:36;23.90;79.20
13976;DHT22;7062;49.792;9.946;2023-07-13T09:05:11;24.10;79.00
13976;DHT22;7062;49.792;9.946;2023-07-13T09:10:32;24.10;79.10
13976;DHT22;7062;49.792;9.946;2023-07-13T09:16:04;24.20;78.90
13976;DHT22;7062;49.792;9.946;2023-07-13T09:18:38;24.30;78.70
13976;DHT22;7062;49.792;9.946;2023-07-13T09:21:13;25.30;79.30
13976;DHT22;7062;49.792;9.946;2023-07-13T09:23:41;24.50;78.90
13976;DHT22;7062;49.792;9.946;2023-07-13T09:26:20;24.50;79.30
13976;DHT22;7062;49.792;9.946;2023-07-13T09:28:53;24.70;78.90
13976;DHT22;7062;49.792;9.946;2023-07-13T09:31:28;24.90;77.70
13976;DHT22;7062;49.792;9.946;2023-07-13T09:33:56;25.20;77.00
13976;DHT22;7062;49.792;9.946;2023-07-13T09:36:30;25.20;76.80
13976;DHT22;7062;49.792;9.946;2023-07-13T09:39:04;25.10;76.50
13976;DHT22;7062;49.792;9.946;2023-07-13T09:44:12;25.90;74.80
13976;DHT22;7062;49.792;9.946;2023-07-13T09:46:43;26.30;74.10
13976;DHT22;7062;49.792;9.946;2023-07-13T09:49:12;26.40;73.50
13976;DHT22;7062;49.792;9.946;2023-07-13T09:51:40;26.30;72.90
13976;DHT22;7062;49.792;9.946;2023-07-13T09:54:18;26.60;71.80
13976;DHT22;7062;49.792;9.946;2023-07-13T09:56:44;26.60;72.00
13976;DHT22;7062;49.792;9.946;2023-07-13T09:59:21;26.40;72.20
13976;DHT22;7062;49.792;9.946;2023-07-13T10:01:48;26.10;72.70
13976;DHT22;7062;49.792;9.946;2023-07-13T10:04:18;25.80;73.40
13976;DHT22;7062;49.792;9.946;2023-07-13T10:06:45;25.80;74.30
13976;DHT22;7062;49.792;9.946;2023-07-13T10:09:15;26.30;73.20
13976;DHT22;7062;49.792;9.946;2023-07-13T10:11:41;27.40;71.00
13976;DHT22;7062;49.792;9.946;2023-07-13T10:14:14;27.50;71.20
13976;DHT22;7062;49.792;9.946;2023-07-13T10:16:42;28.10;70.90
13976;DHT22;7062;49.792;9.946;2023-07-13T10:19:22;29.60;69.60
13976;DHT22;7062;49.792;9.946;2023-07-13T10:21:52;31.00;67.00
13976;DHT22;7062;49.792;9.946;2023-07-13T10:24:24;32.10;65.00
13976;DHT22;7062;49.792;9.946;2023-07-13T10:29:54;32.70;61.90
13976;DHT22;7062;49.792;9.946;2023-07-13T10:32:24;33.40;62.20
13976;DHT22;7062;49.792;9.946;2023-07-13T10:34:51;32.80;60.90
13976;DHT22;7062;49.792;9.946;2023-07-13T10:37:24;31.20;62.60
13976;DHT22;7062;49.792;9.946;2023-07-13T10:39:54;31.80;64.60
13976;DHT22;7062;49.792;9.946;2023-07-13T10:42:37;34.90;60.60
13976;DHT22;7062;49.792;9.946;2023-07-13T10:45:14;33.60;59.20
13976;DHT22;7062;49.792;9.946;2023-07-13T10:47:41;33.60;61.60
13976;DHT22;7062;49.792;9.946;2023-07-13T10:50:11;32.30;60.00
13976;DHT22;7062;49.792;9.946;2023-07-13T10:58:20;32.60;58.70
13976;DHT22;7062;49.792;9.946;2023-07-13T11:03:32;34.90;57.20
13976;DHT22;7062;49.792;9.946;2023-07-13T11:11:35;30.90;59.70
13976;DHT22;7062;49.792;9.946;2023-07-13T11:14:04;30.40;60.40
13976;DHT22;7062;49.792;9.946;2023-07-13T11:16:43;32.30;59.60
13976;DHT22;7062;49.792;9.946;2023-07-13T11:27:44;43.20;48.80
13976;DHT22;7062;49.792;9.946;2023-07-13T11:33:18;42.10;47.30
13976;DHT22;7062;49.792;9.946;2023-07-13T11:35:53;38.10;48.50
13976;DHT22;7062;49.792;9.946;2023-07-13T11:38:38;34.10;52.60
13976;DHT22;7062;49.792;9.946;2023-07-13T11:41:51;31.20;56.20
13976;DHT22;7062;49.792;9.946;2023-07-13T11:43:55;33.60;56.10
13976;DHT22;7062;49.792;9.946;2023-07-13T11:46:26;37.50;51.80
13976;DHT22;7062;49.792;9.946;2023-07-13T11:48:53;34.70;52.10
13976;DHT22;7062;49.792;9.946;2023-07-13T11:51:26;32.50;55.00
13976;DHT22;7062;49.792;9.946;2023-07-13T11:53:54;31.60;56.20
13976;DHT22;7062;49.792;9.946;2023-07-13T11:56:21;31.20;57.00
13976;DHT22;7062;49.792;9.946;2023-07-13T11:58:53;32.50;56.10
13976;DHT22;7062;49.792;9.946;2023-07-13T12:01:28;31.40;55.90
13976;DHT22;7062;49.792;9.946;2023-07-13T12:04:00;30.60;58.10
13976;DHT22;7062;49.792;9.946;2023-07-13T12:06:36;30.50;58.00
13976;DHT22;7062;49.792;9.946;2023-07-13T12:09:13;30.00;58.70
13976;DHT22;7062;49.792;9.946;2023-07-13T12:11:42;29.40;59.00
13976;DHT22;7062;49.792;9.946;2023-07-13T12:14:18;28.60;60.20
13976;DHT22;7062;49.792;9.946;2023-07-13T12:16:46;28.70;60.90
13976;DHT22;7062;49.792;9.946;2023-07-13T12:19:18;30.60;60.60
13976;DHT22;7062;49.792;9.946;2023-07-13T12:21:46;31.10;58.00
13976;DHT22;7062;49.792;9.946;2023-07-13T12:24:20;30.20;58.50
13976;DHT22;7062;49.792;9.946;2023-07-13T12:26:53;30.00;58.60
13976;DHT22;7062;49.792;9.946;2023-07-13T12:29:18;29.50;59.00
13976;DHT22;7062;49.792;9.946;2023-07-13T12:31:46;29.30;59.60
13976;DHT22;7062;49.792;9.946;2023-07-13T12:34:21;28.90;60.40
13976;DHT22;7062;49.792;9.946;2023-07-13T12:36:59;28.50;61.00
13976;DHT22;7062;49.792;9.946;2023-07-13T12:39:44;28.00;62.30
13976;DHT22;7062;49.792;9.946;2023-07-13T12:44:57;31.40;57.20
13976;DHT22;7062;49.792;9.946;2023-07-13T12:47:23;31.50;56.40
13976;DHT22;7062;49.792;9.946;2023-07-13T12:49:56;31.60;56.80
13976;DHT22;7062;49.792;9.946;2023-07-13T12:52:31;32.80;55.90
13976;DHT22;7062;49.792;9.946;2023-07-13T12:55:12;34.10;55.00
13976;DHT22;7062;49.792;9.946;2023-07-13T12:57:45;34.30;52.80
13976;DHT22;7062;49.792;9.946;2023-07-13T13:00:31;33.90;53.80
13976;DHT22;7062;49.792;9.946;2023-07-13T13:03:16;33.20;54.00
13976;DHT22;7062;49.792;9.946;2023-07-13T13:05:43;32.00;55.60
13976;DHT22;7062;49.792;9.946;2023-07-13T13:08:14;32.00;55.80
13976;DHT22;7062;49.792;9.946;2023-07-13T13:10:39;31.50;56.00
13976;DHT22;7062;49.792;9.946;2023-07-13T13:13:05;30.80;57.00
13976;DHT22;7062;49.792;9.946;2023-07-13T13:15:31;30.10;58.20
13976;DHT22;7062;49.792;9.946;2023-07-13T13:17:58;29.20;59.20
13976;DHT22;7062;49.792;9.946;2023-07-13T13:20:24;28.40;60.20
13976;DHT22;7062;49.792;9.946;2023-07-13T13:22:51;28.20;61.30
13976;DHT22;7062;49.792;9.946;2023-07-13T13:25:18;27.90;61.70
13976;DHT22;7062;49.792;9.946;2023-07-13T13:27:44;27.90;61.90
13976;DHT22;7062;49.792;9.946;2023-07-13T13:30:16;27.70;62.10
13976;DHT22;7062;49.792;9.946;2023-07-13T13:32:43;27.70;62.50
13976;DHT22;7062;49.792;9.946;2023-07-13T13:35:17;27.60;63.00
13976;DHT22;7062;49.792;9.946;2023-07-13T13:37:44;27.80;62.50
13976;DHT22;7062;49.792;9.946;2023-07-13T13:42:41;28.20;62.10
13976;DHT22;7062;49.792;9.946;2023-07-13T13:45:09;27.80;62.40
13976;DHT22;7062;49.792;9.946;2023-07-13T13:47:35;28.00;62.50
13976;DHT22;7062;49.792;9.946;2023-07-13T13:50:12;27.80;62.10
13976;DHT22;7062;49.792;9.946;2023-07-13T13:52:40;27.10;63.50
13976;DHT22;7062;49.792;9.946;2023-07-13T13:55:32;27.60;62.90
13976;DHT22;7062;49.792;9.946;2023-07-13T13:57:58;27.90;63.80
13976;DHT22;7062;49.792;9.946;2023-07-13T14:00:24;27.80;62.70
13976;DHT22;7062;49.792;9.946;2023-07-13T14:02:50;27.50;63.10
13976;DHT22;7062;49.792;9.946;2023-07-13T14:05:25;27.20;64.30
13976;DHT22;7062;49.792;9.946;2023-07-13T14:07:55;27.20;63.40
13976;DHT22;7062;49.792;9.946;2023-07-13T14:10:22;27.70;63.10
13976;DHT22;7062;49.792;9.946;2023-07-13T14:12:53;29.60;61.10
13976;DHT22;7062;49.792;9.946;2023-07-13T14:15:26;31.90;58.40
13976;DHT22;7062;49.792;9.946;2023-07-13T14:17:53;32.00;57.20
13976;DHT22;7062;49.792;9.946;2023-07-13T14:20:21;31.80;58.20
13976;DHT22;7062;49.792;9.946;2023-07-13T14:22:48;30.60;58.40
13976;DHT22;7062;49.792;9.946;2023-07-13T14:25:15;29.30;59.60
13976;DHT22;7062;49.792;9.946;2023-07-13T14:27:43;28.30;60.70
13976;DHT22;7062;49.792;9.946;2023-07-13T14:30:17;27.60;61.80
13976;DHT22;7062;49.792;9.946;2023-07-13T14:32:43;27.30;62.80
13976;DHT22;7062;49.792;9.946;2023-07-13T14:35:13;27.00;63.60
13976;DHT22;7062;49.792;9.946;2023-07-13T14:37:40;27.00;63.70
13976;DHT22;7062;49.792;9.946;2023-07-13T14:40:18;27.20;64.00
13976;DHT22;7062;49.792;9.946;2023-07-13T14:42:45;27.50;63.90
13976;DHT22;7062;49.792;9.946;2023-07-13T14:45:19;27.50;63.50
13976;DHT22;7062;49.792;9.946;2023-07-13T14:47:45;27.50;63.40
13976;DHT22;7062;49.792;9.946;2023-07-13T14:50:16;27.30;63.10
13976;DHT22;7062;49.792;9.946;2023-07-13T14:52:44;27.10;63.60
13976;DHT22;7062;49.792;9.946;2023-07-13T14:55:19;27.00;62.70
13976;DHT22;7062;49.792;9.946;2023-07-13T14:57:45;27.20;62.60
13976;DHT22;7062;49.792;9.946;2023-07-13T15:00:15;27.30;63.00
13976;DHT22;7062;49.792;9.946;2023-07-13T15:02:43;27.30;63.10
13976;DHT22;7062;49.792;9.946;2023-07-13T15:05:18;27.50;62.90
13976;DHT22;7062;49.792;9.946;2023-07-13T15:07:44;27.70;61.90
13976;DHT22;7062;49.792;9.946;2023-07-13T15:10:25;27.80;61.80
13976;DHT22;7062;49.792;9.946;2023-07-13T15:12:52;27.60;61.80
13976;DHT22;7062;49.792;9.946;2023-07-13T15:15:19;27.40;62.30
13976;DHT22;7062;49.792;9.946;2023-07-13T15:17:46;27.40;63.10
13976;DHT22;7062;49.792;9.946;2023-07-13T15:20:31;27.40;62.40
13976;DHT22;7062;49.792;9.946;2023-07-13T15:22:58;27.30;62.20
13976;DHT22;7062;49.792;9.946;2023-07-13T15:25:26;27.30;61.70
13976;DHT22;7062;49.792;9.946;2023-07-13T15:27:54;27.30;61.70
13976;DHT22;7062;49.792;9.946;2023-07-13T15:30:21;27.50;61.90
13976;DHT22;7062;49.792;9.946;2023-07-13T15:32:47;27.70;61.40
13976;DHT22;7062;49.792;9.946;2023-07-13T15:35:18;27.60;62.20
13976;DHT22;7062;49.792;9.946;2023-07-13T15:37:45;27.80;61.40
13976;DHT22;7062;49.792;9.946;2023-07-13T15:40:12;27.90;62.00
13976;DHT22;7062;49.792;9.946;2023-07-13T15:42:39;28.30;61.30
13976;DHT22;7062;49.792;9.946;2023-07-13T15:47:41;29.50;59.00
13976;DHT22;7062;49.792;9.946;2023-07-13T15:50:19;30.00;58.10
13976;DHT22;7062;49.792;9.946;2023-07-13T15:52:49;29.90;58.20
13976;DHT22;7062;49.792;9.946;2023-07-13T15:55:15;29.50;58.80
13976;DHT22;7062;49.792;9.946;2023-07-13T15:57:44;29.60;59.00
13976;DHT22;7062;49.792;9.946;2023-07-13T16:02:42;29.50;59.30
13976;DHT22;7062;49.792;9.946;2023-07-13T16:05:08;30.00;59.10
13976;DHT22;7062;49.792;9.946;2023-07-13T16:07:34;30.60;57.80
13976;DHT22;7062;49.792;9.946;2023-07-13T16:09:59;31.00;57.40
13976;DHT22;7062;49.792;9.946;2023-07-13T16:12:26;31.10;57.50
13976;DHT22;7062;49.792;9.946;2023-07-13T16:14:53;30.80;57.40
13976;DHT22;7062;49.792;9.946;2023-07-13T16:17:18;30.60;58.00
13976;DHT22;7062;49.792;9.946;2023-07-13T16:19:46;31.00;57.90
13976;DHT22;7062;49.792;9.946;2023-07-13T16:22:17;31.40;56.70
13976;DHT22;7062;49.792;9.946;2023-07-13T16:24:43;31.50;57.00
13976;DHT22;7062;49.792;9.946;2023-07-13T16:27:11;31.20;57.20
13976;DHT22;7062;49.792;9.946;2023-07-13T16:29:38;30.60;57.50
13976;DHT22;7062;49.792;9.946;2023-07-13T16:32:10;30.00;58.60
13976;DHT22;7062;49.792;9.946;2023-07-13T16:34:37;29.60;59.10
13976;DHT22;7062;49.792;9.946;2023-07-13T16:37:14;28.90;59.90
13976;DHT22;7062;49.792;9.946;2023-07-13T16:39:44;28.50;60.70
13976;DHT22;7062;49.792;9.946;2023-07-13T16:42:11;28.10;61.30
13976;DHT22;7062;49.792;9.946;2023-07-13T16:44:36;27.80;62.00
13976;DHT22;7062;49.792;9.946;2023-07-13T16:47:08;27.50;62.30